Time;durP1;ratioP1;P1;durP2;ratioP2;P2;SDS_P1;SDS_P2;PMS_P1;PMS_P2;Temp;Humidity;BMP_temperature;BMP_pressure;BME280_temperature;BME280_humidity;BME280_pressure;Samples;Min_cycle;Max_cycle;Signal;HPM_P1;HPM_P2
2023/06/28 00:03:21;;;;;;;1.80;1.10;;;;;;;12.31;74.59;98612.91;221717;1303;22576;-71
2023/06/28 00:09:40;;;;;;;1.30;1.20;;;;;;;12.43;74.70;98614.96;221743;1304;22579;-71
2023/06/28 00:16:06;;;;;;;;;;;;;;;;;;;;;
2023/06/28 00:21:48;;;;;;;;;;;;;;;;;;;;;
2023/06/28 00:27:16;;;;;;;2.70;1.20;;;;;;;12.61;74.13;98611.50;222006;1301;24699;-72
2023/06/28 00:32:52;;;;;;;;;;;;;;;;;;;;;
2023/06/28 00:38:34;;;;;;;2.60;1.20;;;;;;;12.46;74.11;98602.52;221911;1304;22609;-71
2023/06/28 00:44:10;;;;;;;2.90;1.40;;;;;;;12.37;74.03;98596.00;221823;1304;25367;-72
2023/06/28 00:49:55;;;;;;;2.30;1.50;;;;;;;12.27;74.37;98589.69;221856;1301;22582;-72
2023/06/28 00:56:04;;;;;;;2.10;1.60;;;;;;;12.15;74.37;98583.52;221744;1303;24385;-71
2023/06/28 01:01:35;;;;;;;4.60;1.70;;;;;;;12.04;74.61;98578.09;221820;1304;22589;-71
2023/06/28 01:07:36;;;;;;;2.60;1.20;;;;;;;11.95;74.72;98584.20;221835;1304;22562;-71
2023/06/28 01:13:32;;;;;;;1.80;1.70;;;;;;;11.86;74.56;98590.73;221993;1304;22565;-71
2023/06/28 01:19:37;;;;;;;;;;;;;;;;;;;;;
2023/06/28 01:24:53;;;;;;;2.20;1.60;;;;;;;11.66;75.33;98588.88;221890;1304;22572;-70
2023/06/28 01:30:52;;;;;;;1.20;1.00;;;;;;;11.57;75.68;98595.89;221921;1304;22562;-72
2023/06/28 01:36:27;;;;;;;2.20;1.40;;;;;;;11.47;76.02;98593.48;221637;1304;22552;-70
2023/06/28 01:41:51;;;;;;;1.40;1.30;;;;;;;11.39;76.02;98592.85;221883;1304;22598;-70
2023/06/28 01:47:18;;;;;;;2.60;1.50;;;;;;;11.31;76.08;98585.36;221971;1304;22577;-71
2023/06/28 01:52:45;;;;;;;1.50;1.20;;;;;;;11.21;76.22;98584.67;221837;1301;22572;-73
2023/06/28 01:58:06;;;;;;;2.00;1.30;;;;;;;11.12;76.72;98592.04;221958;1301;25438;-71
2023/06/28 02:04:07;;;;;;;1.40;1.30;;;;;;;11.06;76.75;98594.23;221911;1301;22573;-71
2023/06/28 02:09:52;;;;;;;2.50;1.50;;;;;;;10.99;77.07;98585.63;221914;1304;22728;-71
2023/06/28 02:21:50;;;;;;;;;;;;;;;;;;;;;
2023/06/28 02:28:04;;;;;;;;;;;;;;;;;;;;;
2023/06/28 02:33:52;;;;;;;1.60;1.50;;;;;;;10.85;77.60;98593.21;221681;1304;23054;-71
2023/06/28 02:40:02;;;;;;;;;;;;;;;;;;;;;
2023/06/28 02:46:39;;;;;;;;;;;;;;;;;;;;;
2023/06/28 02:52:35;;;;;;;3.10;1.40;;;;;;;10.82;78.10;98596.39;221799;1297;22556;-71
2023/06/28 02:58:27;;;;;;;3.00;1.50;;;;;;;10.81;78.21;98603.88;221654;1304;22593;-71
2023/06/28 03:03:51;;;;;;;3.20;1.50;;;;;;;10.83;78.31;98606.84;221735;1304;22570;-71
2023/06/28 03:09:17;;;;;;;1.60;1.50;;;;;;;10.86;78.32;98601.60;221386;1301;22569;-71
2023/06/28 03:15:04;;;;;;;2.50;1.40;;;;;;;10.92;78.32;98604.09;221578;1304;22565;-71
2023/06/28 03:20:25;;;;;;;1.60;1.50;;;;;;;11.01;78.38;98604.21;220875;1304;22586;-72
2023/06/28 03:26:09;;;;;;;2.70;1.50;;;;;;;11.25;78.20;98601.09;221050;1295;22586;-73
2023/06/28 03:32:25;;;;;;;;;;;;;;;;;;;;;
2023/06/28 03:38:23;;;;;;;2.00;1.50;;;;;;;11.96;77.25;98600.26;221162;1304;24958;-72
2023/06/28 03:44:15;;;;;;;2.80;1.40;;;;;;;12.09;77.33;98607.92;220937;1304;22570;-73
2023/06/28 03:49:35;;;;;;;4.50;1.40;;;;;;;12.36;76.83;98612.95;221534;1304;22573;-72
2023/06/28 03:56:08;;;;;;;4.20;1.40;;;;;;;13.23;75.74;98612.16;221033;1303;22561;-71
2023/06/28 04:01:23;;;;;;;2.00;1.40;;;;;;;14.00;74.84;98610.59;221107;1307;22575;-71
2023/06/28 04:07:33;;;;;;;2.20;1.20;;;;;;;14.47;73.70;98615.06;220690;1290;22594;-71
2023/06/28 04:13:42;;;;;;;2.60;1.30;;;;;;;14.68;72.98;98625.58;220621;1309;22556;-71
2023/06/28 04:19:00;;;;;;;2.90;1.30;;;;;;;14.63;72.70;98627.34;220144;1309;22588;-72
2023/06/28 04:24:35;;;;;;;2.60;1.10;;;;;;;14.62;72.39;98627.35;220318;1311;22592;-71
2023/06/28 04:30:13;;;;;;;2.00;1.00;;;;;;;14.72;72.15;98632.41;220196;1311;22936;-71
2023/06/28 04:35:56;;;;;;;;;;;;;;;;;;;;;
2023/06/28 04:41:34;;;;;;;1.90;1.20;;;;;;;15.05;72.37;98631.45;220369;1308;22602;-72
2023/06/28 04:47:19;;;;;;;2.40;1.10;;;;;;;15.36;71.49;98625.92;220908;1291;25539;-71
2023/06/28 04:53:27;;;;;;;3.00;1.20;;;;;;;15.31;70.91;98631.95;220744;1307;22565;-71
2023/06/28 04:59:27;;;;;;;1.60;1.30;;;;;;;15.13;70.71;98631.65;221377;1306;22623;-71
2023/06/28 05:04:32;;;;;;;4.70;2.00;;;;;;;15.04;70.88;98626.09;221444;1304;22591;-71
2023/06/28 05:09:47;;;;;;;2.20;1.10;;;;;;;14.91;70.90;98625.70;221257;1304;22568;-71
2023/06/28 05:15:43;;;;;;;1.50;1.30;;;;;;;14.83;70.79;98632.52;221340;1306;22800;-70
2023/06/28 05:20:58;;;;;;;1.40;1.30;;;;;;;14.84;71.07;98633.79;221192;1305;22576;-73
2023/06/28 05:26:07;;;;;;;1.40;0.90;;;;;;;15.04;71.20;98625.73;221607;1294;22539;-71
2023/06/28 05:31:11;;;;;;;1.90;1.20;;;;;;;15.44;71.03;98622.17;221675;1301;23645;-71
2023/06/28 05:36:20;;;;;;;3.00;1.20;;;;;;;15.82;70.68;98612.38;221692;1287;22584;-71
2023/06/28 05:41:45;;;;;;;1.90;1.30;;;;;;;16.09;69.95;98612.98;221748;1301;22566;-71
2023/06/28 05:47:07;;;;;;;2.30;1.20;;;;;;;16.36;69.58;98619.27;221573;1303;25367;-71
2023/06/28 05:52:28;;;;;;;2.80;1.40;;;;;;;16.49;69.00;98615.23;221631;1301;22573;-73
2023/06/28 05:57:42;;;;;;;;;;;;;;;16.68;69.11;98614.58;221337;1285;23112;-72
2023/06/28 06:02:46;;;;;;;1.20;0.80;;;;;;;16.92;68.45;98619.67;221554;1282;22568;-70
2023/06/28 06:08:24;;;;;;;3.50;1.10;;;;;;;17.09;67.95;98615.35;221221;1282;138823;-71
2023/06/28 06:13:46;;;;;;;2.20;1.50;;;;;;;17.11;67.14;98614.48;221181;1289;138278;-71
2023/06/28 06:18:54;;;;;;;2.80;1.50;;;;;;;17.03;67.33;98612.98;217159;1288;5340030;-71
2023/06/28 06:24:32;;;;;;;2.40;1.40;;;;;;;16.98;67.19;98616.06;221056;1298;138370;-71
2023/06/28 06:29:35;;;;;;;1.50;1.30;;;;;;;17.08;67.49;98612.72;221508;1281;138568;-72
2023/06/28 06:34:47;;;;;;;1.70;1.30;;;;;;;17.12;67.33;98611.56;221115;1298;138599;-72
2023/06/28 06:40:43;;;;;;;2.50;1.60;;;;;;;17.31;67.02;98611.34;221128;1295;139328;-71
2023/06/28 06:46:06;;;;;;;2.70;1.40;;;;;;;17.67;66.52;98601.71;220752;1291;22584;-71
2023/06/28 06:56:58;;;;;;;3.40;1.60;;;;;;;17.63;65.90;98612.27;220372;1288;138394;-70
2023/06/28 07:02:06;;;;;;;2.50;1.20;;;;;;;17.43;65.97;98611.80;220412;1301;138727;-71
2023/06/28 07:07:22;;;;;;;3.90;1.30;;;;;;;17.21;66.14;98610.48;220290;1295;138530;-70
2023/06/28 07:12:31;;;;;;;6.00;2.30;;;;;;;17.08;67.00;98605.77;220305;1297;138769;-71
2023/06/28 07:17:34;;;;;;;2.90;1.20;;;;;;;17.11;67.17;98605.64;221074;1291;139069;-70
2023/06/28 07:22:56;;;;;;;2.10;1.40;;;;;;;17.19;67.40;98606.06;221357;1289;138802;-71
2023/06/28 07:28:04;;;;;;;3.20;1.40;;;;;;;17.46;67.77;98605.17;221484;1285;22573;-70
2023/06/28 07:33:10;;;;;;;9.40;1.80;;;;;;;17.81;67.37;98601.88;220966;1299;138011;-71
2023/06/28 07:38:22;;;;;;;4.20;1.60;;;;;;;18.29;66.98;98600.11;221300;1295;138587;-70
2023/06/28 07:43:33;;;;;;;2.70;1.30;;;;;;;18.70;65.91;98602.40;221489;1298;138290;-70
2023/06/28 07:48:38;;;;;;;1.70;1.10;;;;;;;19.10;64.88;98592.86;221356;1282;137826;-71
2023/06/28 07:53:51;;;;;;;2.20;1.30;;;;;;;19.37;64.16;98590.91;221237;1297;138054;-71
2023/06/28 07:58:53;;;;;;;2.40;1.40;;;;;;;19.58;63.57;98593.86;221137;1303;137892;-72
2023/06/28 08:04:07;;;;;;;1.60;1.00;;;;;;;19.66;62.62;98590.05;221439;1299;22594;-76
2023/06/28 08:09:10;;;;;;;1.80;1.00;;;;;;;19.61;62.27;98587.31;221287;1282;137338;-75
2023/06/28 08:14:15;;;;;;;1.80;1.00;;;;;;;19.61;61.88;98574.60;221051;1285;137825;-75
2023/06/28 08:19:17;;;;;;;4.00;1.10;;;;;;;19.61;61.02;98568.59;221167;1300;137834;-76
2023/06/28 08:24:19;;;;;;;1.50;1.10;;;;;;;19.77;61.32;98562.81;220955;1303;137835;-77
2023/06/28 08:29:31;;;;;;;2.60;1.10;;;;;;;20.06;60.72;98556.88;221148;1285;138547;-76
2023/06/28 08:34:33;;;;;;;2.00;1.10;;;;;;;20.37;59.87;98550.45;221263;1289;137756;-76
2023/06/28 08:39:38;;;;;;;6.20;2.10;;;;;;;20.73;59.56;98552.33;221474;1281;22638;-75
2023/06/28 08:44:41;;;;;;;4.90;1.30;;;;;;;21.03;58.69;98544.06;221351;1298;137661;-77
2023/06/28 08:49:47;;;;;;;4.50;1.50;;;;;;;20.71;57.55;98545.42;221192;1288;137863;-76
2023/06/28 08:54:53;;;;;;;4.60;1.50;;;;;;;20.30;58.83;98541.38;221266;1289;138031;-75
2023/06/28 08:59:59;;;;;;;2.80;1.50;;;;;;;20.24;59.66;98536.27;221218;1301;137966;-76
2023/06/28 09:05:02;;;;;;;2.50;1.80;;;;;;;20.60;59.03;98532.79;221290;1304;137923;-76
2023/06/28 09:10:19;;;;;;;3.20;1.30;;;;;;;20.60;57.91;98540.32;221100;1291;137851;-74
2023/06/28 09:15:25;;;;;;;5.90;1.70;;;;;;;20.43;57.61;98541.95;221018;1301;22568;-76
2023/06/28 09:20:27;;;;;;;5.40;2.20;;;;;;;19.94;58.31;98549.20;221124;1301;137637;-78
2023/06/28 09:25:41;;;;;;;2.10;1.90;;;;;;;19.06;62.01;98559.21;221179;1301;137912;-80
2023/06/28 09:31:11;;;;;;;4.60;2.30;;;;;;;18.18;64.42;98559.27;221005;1299;138584;-78
2023/06/28 09:36:22;;;;;;;1.40;1.10;;;;;;;17.83;66.15;98547.92;221101;1279;138716;-75
2023/06/28 09:41:38;;;;;;;3.40;1.40;;;;;;;17.98;67.15;98542.75;221216;1285;138697;-82
2023/06/28 09:46:47;;;;;;;3.10;1.70;;;;;;;18.15;67.50;98534.41;221549;1295;138496;-77
2023/06/28 09:52:01;;;;;;;4.10;1.60;;;;;;;18.20;66.69;98536.90;221325;1286;25329;-78
2023/06/28 09:57:05;;;;;;;1.40;1.30;;;;;;;18.25;65.97;98529.02;220973;1285;138276;-80
2023/06/28 10:02:09;;;;;;;9.00;1.60;;;;;;;18.57;65.43;98524.44;221062;1292;138525;-78
2023/06/28 10:07:24;;;;;;;5.20;1.70;;;;;;;18.69;64.82;98526.77;221298;1300;139062;-78
2023/06/28 10:12:44;;;;;;;5.90;1.30;;;;;;;18.89;63.94;98523.08;221456;1301;138725;-77
2023/06/28 10:17:56;;;;;;;4.00;1.70;;;;;;;19.32;64.01;98514.02;221422;1303;138515;-78
2023/06/28 10:23:19;;;;;;;4.20;1.40;;;;;;;19.86;62.42;98517.44;221267;1301;138284;-75
2023/06/28 10:28:33;;;;;;;2.40;1.20;;;;;;;20.11;61.23;98521.73;221283;1289;137946;-79
2023/06/28 10:33:36;;;;;;;5.10;1.20;;;;;;;20.18;60.59;98520.06;221637;1296;22668;-78
2023/06/28 10:39:00;;;;;;;3.30;1.20;;;;;;;20.13;58.84;98522.81;221148;1295;137756;-78
2023/06/28 10:44:10;;;;;;;3.40;1.30;;;;;;;20.05;58.45;98513.75;221140;1301;138000;-75
2023/06/28 10:49:39;;;;;;;4.80;1.10;;;;;;;20.21;58.11;98510.32;221368;1304;138028;-80
2023/06/28 10:54:50;;;;;;;3.00;1.70;;;;;;;20.07;57.86;98512.27;221326;1295;138029;-79
2023/06/28 10:59:55;;;;;;;2.70;1.50;;;;;;;19.86;57.38;98517.96;221271;1290;137978;-76
2023/06/28 11:05:06;;;;;;;2.60;1.30;;;;;;;19.98;57.60;98515.13;221458;1298;137996;-79
2023/06/28 11:10:11;;;;;;;2.40;1.40;;;;;;;19.95;57.25;98511.30;221527;1285;22632;-79
2023/06/28 11:15:13;;;;;;;3.00;1.60;;;;;;;19.62;57.28;98518.27;222157;1298;22589;-77
2023/06/28 11:20:42;;;;;;;1.90;1.40;;;;;;;19.37;58.04;98519.86;221033;1298;137825;-79
2023/06/28 11:25:47;;;;;;;2.60;1.40;;;;;;;19.38;57.70;98522.75;221256;1289;137631;-80
2023/06/28 11:30:54;;;;;;;2.20;1.30;;;;;;;19.59;57.63;98504.47;221336;1290;138075;-78
2023/06/28 11:36:00;;;;;;;2.10;1.20;;;;;;;19.88;57.82;98509.04;221452;1290;138212;-79
2023/06/28 11:41:26;;;;;;;3.70;1.40;;;;;;;20.24;56.39;98504.41;221495;1301;137971;-79
2023/06/28 11:46:59;;;;;;;1.40;1.00;;;;;;;20.70;55.76;98506.66;221487;1304;137998;-83
2023/06/28 11:52:29;;;;;;;2.40;1.40;;;;;;;20.72;53.67;98508.66;221178;1299;139250;-76
2023/06/28 11:57:42;;;;;;;;;;;;;;;20.68;53.92;98503.75;221011;1295;22562;-78
2023/06/28 12:03:24;;;;;;;;;;;;;;;;;;;;;
2023/06/28 12:09:28;;;;;;;;;;;;;;;;;;;;;
2023/06/28 12:15:05;;;;;;;2.50;1.00;;;;;;;21.70;51.95;98506.95;219941;1285;137904;-76
2023/06/28 12:20:09;;;;;;;4.30;1.20;;;;;;;21.85;51.30;98518.84;220309;1304;138070;-78
2023/06/28 12:25:24;;;;;;;2.20;1.20;;;;;;;21.77;50.52;98529.05;220680;1307;138927;-77
2023/06/28 12:30:44;;;;;;;2.20;1.10;;;;;;;21.69;49.36;98536.19;220609;1304;138128;-78
2023/06/28 12:35:47;;;;;;;1.50;1.40;;;;;;;21.85;49.18;98524.34;221467;1289;138005;-78
2023/06/28 12:40:49;;;;;;;4.20;1.30;;;;;;;21.95;48.28;98525.70;221372;1299;137920;-78
2023/06/28 12:45:54;;;;;;;4.70;1.80;;;;;;;21.98;48.24;98523.92;221014;1300;22600;-80
2023/06/28 12:50:58;;;;;;;2.50;1.30;;;;;;;21.86;49.45;98541.56;221209;1282;137604;-78
2023/06/28 12:56:06;;;;;;;6.40;1.60;;;;;;;21.69;50.36;98560.57;221143;1287;137795;-78
2023/06/28 13:01:14;;;;;;;3.10;1.10;;;;;;;21.45;50.28;98577.27;221165;1296;137991;-79
2023/06/28 13:06:22;;;;;;;4.10;1.30;;;;;;;21.12;50.38;98594.78;221224;1295;137781;-79
2023/06/28 13:11:36;;;;;;;1.80;1.00;;;;;;;20.73;50.54;98595.61;221366;1285;138490;-78
2023/06/28 13:16:53;;;;;;;4.60;1.10;;;;;;;20.55;50.21;98611.36;221472;1293;138024;-79
2023/06/28 13:22:00;;;;;;;1.50;1.10;;;;;;;20.42;50.74;98612.71;221513;1285;22630;-80
2023/06/28 13:27:03;;;;;;;1.40;0.90;;;;;;;20.27;51.45;98619.31;221448;1286;138329;-79
2023/06/28 13:32:20;;;;;;;5.20;1.10;;;;;;;20.05;52.62;98624.69;221554;1295;137807;-79
2023/06/28 13:37:27;;;;;;;2.50;1.00;;;;;;;19.92;53.84;98630.60;221358;1301;138906;-79
2023/06/28 13:42:36;;;;;;;3.60;1.30;;;;;;;19.70;54.46;98640.43;221554;1285;137979;-79
2023/06/28 13:47:47;;;;;;;4.50;1.30;;;;;;;19.46;55.35;98638.79;221410;1296;137971;-78
2023/06/28 13:52:52;;;;;;;4.30;1.20;;;;;;;19.09;56.35;98636.08;221356;1289;137965;-79
2023/06/28 13:57:57;;;;;;;3.60;1.70;;;;;;;18.88;57.23;98636.04;221436;1293;23293;-79
2023/06/28 14:03:03;;;;;;;3.90;1.20;;;;;;;18.83;57.80;98637.63;220972;1292;137504;-79
2023/06/28 14:08:09;;;;;;;;;;;;;;;18.83;58.22;98634.89;221393;1295;22565;-80
2023/06/28 14:13:17;;;;;;;2.70;1.40;;;;;;;18.81;58.47;98637.21;221767;1299;22577;-79
2023/06/28 14:18:48;;;;;;;;;;;;;;;;;;;;;
2023/06/28 14:24:19;;;;;;;2.30;1.30;;;;;;;18.61;59.11;98637.31;221893;1304;22594;-80
2023/06/28 14:29:24;;;;;;;3.30;1.30;;;;;;;18.43;59.74;98641.71;221111;1304;22584;-79
2023/06/28 14:34:49;;;;;;;3.60;1.60;;;;;;;18.16;60.22;98648.68;221489;1304;24924;-79
2023/06/28 14:40:22;;;;;;;2.10;1.40;;;;;;;17.81;60.67;98649.94;221414;1304;22614;-79
2023/06/28 14:45:44;;;;;;;1.90;1.70;;;;;;;17.54;61.18;98650.66;221280;1304;22559;-79
2023/06/28 14:50:52;;;;;;;2.80;1.50;;;;;;;17.37;61.58;98647.55;221516;1304;22585;-80
2023/06/28 14:56:11;;;;;;;3.60;1.60;;;;;;;17.27;62.03;98646.83;221677;1304;22580;-80
2023/06/28 15:02:44;;;;;;;3.80;1.60;;;;;;;17.22;62.14;98648.42;221394;1303;22556;-74
2023/06/28 15:08:26;;;;;;;4.40;1.50;;;;;;;17.27;62.55;98645.80;221092;1306;22777;-74
2023/06/28 15:14:40;;;;;;;;;;;;;;;;;;;;;
2023/06/28 15:20:45;;;;;;;4.80;1.70;;;;;;;17.34;62.47;98638.27;221463;1306;24522;-73
2023/06/28 15:26:47;;;;;;;2.50;1.50;;;;;;;17.30;62.55;98636.84;221492;1305;22581;-73
2023/06/28 15:32:17;;;;;;;5.00;1.40;;;;;;;17.29;62.78;98638.25;221614;1304;22597;-73
2023/06/28 15:38:14;;;;;;;3.70;1.60;;;;;;;17.23;62.75;98635.36;221774;1304;22622;-73
2023/06/28 15:43:53;;;;;;;3.50;1.80;;;;;;;17.10;63.84;98639.67;221701;1304;24279;-73
2023/06/28 15:49:32;;;;;;;4.90;2.00;;;;;;;16.78;64.78;98648.98;221823;1301;25263;-73
2023/06/28 15:54:39;;;;;;;5.10;2.00;;;;;;;16.35;65.76;98649.75;221695;1302;23057;-73
2023/06/28 16:00:41;;;;;;;4.90;2.00;;;;;;;16.02;66.56;98641.58;221818;1304;24339;-74
2023/06/28 16:06:00;;;;;;;4.30;2.00;;;;;;;15.96;67.13;98630.07;221811;1304;22552;-75
2023/06/28 16:11:18;;;;;;;3.80;2.00;;;;;;;16.08;67.30;98622.35;221739;1304;22682;-73
2023/06/28 16:16:53;;;;;;;2.50;1.80;;;;;;;16.29;67.44;98617.45;221827;1304;22598;-73
2023/06/28 16:22:51;;;;;;;6.50;1.60;;;;;;;16.46;67.25;98615.25;221786;1304;22595;-73
2023/06/28 16:28:22;;;;;;;;;;;;;;;;;;;;;
2023/06/28 16:33:44;;;;;;;2.70;1.80;;;;;;;16.62;67.35;98617.46;221719;1304;22701;-73
2023/06/28 16:38:53;;;;;;;4.70;2.00;;;;;;;16.64;67.25;98617.52;221817;1304;22568;-72
2023/06/28 16:44:46;;;;;;;4.80;2.00;;;;;;;16.62;66.95;98617.41;221786;1304;22563;-73
2023/06/28 16:50:08;;;;;;;;;;;;;;;16.61;67.00;98618.87;221739;1304;22549;-72
2023/06/28 16:55:32;;;;;;;2.90;1.50;;;;;;;16.59;67.16;98619.19;221814;1304;22589;-73
2023/06/28 17:01:21;;;;;;;;;;;;;;;;;;;;;
2023/06/28 17:07:08;;;;;;;;;;;;;;;;;;;;;
2023/06/28 17:13:08;;;;;;;4.60;2.00;;;;;;;16.63;67.53;98635.46;221807;1298;23074;-72
2023/06/28 17:19:09;;;;;;;4.40;1.60;;;;;;;16.67;67.83;98638.04;221798;1304;22676;-73
2023/06/28 17:24:54;;;;;;;;;;;;;;;;;;;;;
2023/06/28 17:30:45;;;;;;;5.20;2.00;;;;;;;16.48;68.47;98640.85;221656;1304;22598;-74
2023/06/28 17:37:15;;;;;;;4.50;2.00;;;;;;;16.35;69.04;98645.11;221728;1304;22565;-74
2023/06/28 17:43:18;;;;;;;5.40;2.10;;;;;;;16.28;69.53;98646.27;220876;1307;22571;-73
2023/06/28 17:49:52;;;;;;;2.10;1.70;;;;;;;16.17;69.84;98644.16;221017;1307;22572;-73
2023/06/28 17:55:55;;;;;;;;;;;;;;;;;;;;;
2023/06/28 18:02:29;;;;;;;3.80;2.60;;;;;;;15.83;71.43;98652.79;221791;1304;22568;-74
2023/06/28 18:08:05;;;;;;;;;;;;;;;;;;;;;
2023/06/28 18:13:46;;;;;;;6.00;3.50;;;;;;;15.30;73.40;98653.91;221742;1304;22568;-75
2023/06/28 18:19:32;;;;;;;6.80;3.20;;;;;;;15.08;74.24;98654.17;217885;1304;5339021;-74
2023/06/28 18:32:34;;;;;;;;;;;;;;;;;;;;;
2023/06/28 18:39:09;;;;;;;;;;;;;;;;;;;;;
2023/06/28 18:45:44;;;;;;;;;;;;;;;;;;;;;
2023/06/28 18:51:36;;;;;;;4.10;3.50;;;;;;;14.52;78.04;98657.54;221823;1304;22564;-73
2023/06/28 18:57:31;;;;;;;5.10;4.10;;;;;;;14.44;78.63;98663.56;221695;1297;22719;-74
2023/06/28 19:04:03;;;;;;;;;;;;;;;;;;;;;
2023/06/28 19:10:31;;;;;;;;;;;;;;;;;;;;;
2023/06/28 19:16:54;;;;;;;4.20;3.60;;;;;;;14.36;80.00;98664.33;221913;1304;22584;-73
2023/06/28 19:22:47;;;;;;;6.80;3.90;;;;;;;14.37;80.46;98671.69;221701;1304;22598;-73
2023/06/28 19:28:21;;;;;;;5.70;4.00;;;;;;;14.36;80.67;98675.98;221840;1304;22568;-73
2023/06/28 19:34:19;;;;;;;5.60;4.70;;;;;;;14.38;80.92;98674.83;221730;1304;22605;-73
2023/06/28 19:40:25;;;;;;;6.20;5.60;;;;;;;14.37;80.96;98671.40;221122;1295;22568;-73
2023/06/28 19:46:54;;;;;;;6.40;5.40;;;;;;;14.39;81.25;98674.08;221125;1307;22596;-74
2023/06/28 19:52:25;;;;;;;6.00;4.60;;;;;;;14.42;81.40;98677.67;220942;1307;22606;-74
2023/06/28 19:58:36;;;;;;;5.00;4.20;;;;;;;14.41;81.38;98679.02;221757;1304;22593;-74
2023/06/28 20:04:53;;;;;;;;;;;;;;;;;;;;;
2023/06/28 20:11:23;;;;;;;6.60;4.60;;;;;;;14.43;81.99;98686.13;221126;1307;22687;-73
2023/06/28 20:18:12;;;;;;;6.30;3.70;;;;;;;14.42;82.29;98691.20;220847;1307;22607;-74
2023/06/28 20:24:20;;;;;;;;;;;;;;;14.41;82.39;98695.88;221115;1307;25249;-74
2023/06/28 20:29:37;;;;;;;6.80;4.80;;;;;;;14.37;82.80;98692.45;221729;1304;22584;-74
2023/06/28 20:35:43;;;;;;;5.80;4.80;;;;;;;14.31;83.04;98686.55;221843;1304;22610;-73
2023/06/28 20:41:18;;;;;;;5.10;4.40;;;;;;;14.23;83.18;98684.61;221677;1304;23683;-74
2023/06/28 20:47:00;;;;;;;5.90;4.10;;;;;;;14.19;83.53;98687.33;221927;1304;22593;-73
2023/06/28 21:00:09;;;;;;;5.50;4.90;;;;;;;14.20;84.15;98699.30;221923;1304;24586;-74
2023/06/28 21:06:29;;;;;;;;;;;;;;;;;;;;;
2023/06/28 21:13:08;;;;;;;;;;;;;;;;;;;;;
2023/06/28 21:19:07;;;;;;;6.00;5.40;;;;;;;14.23;84.38;98697.48;221414;1304;22568;-75
2023/06/28 21:25:43;;;;;;;;;;;;;;;;;;;;;
2023/06/28 21:31:50;;;;;;;6.90;5.10;;;;;;;14.25;84.58;98690.42;221919;1304;22576;-74
2023/06/28 21:44:49;;;;;;;6.90;5.40;;;;;;;14.20;85.06;98698.93;221904;1304;22571;-74
2023/06/28 21:51:11;;;;;;;7.20;6.60;;;;;;;14.17;85.14;98705.98;221870;1304;22580;-75
2023/06/28 21:57:26;;;;;;;8.60;6.60;;;;;;;14.16;85.53;98703.61;221860;1304;22593;-74
2023/06/28 22:04:13;;;;;;;;;;;;;;;;;;;;;
2023/06/28 22:11:08;;;;;;;;;;;;;;;;;;;;;
2023/06/28 22:24:46;;;;;;;;;;;;;;;;;;;;;
2023/06/28 22:31:42;;;;;;;;;;;;;;;;;;;;;
2023/06/28 22:37:56;;;;;;;;;;;;;;;;;;;;;
2023/06/28 22:44:40;;;;;;;7.40;6.60;;;;;;;14.26;85.94;98714.05;221936;1304;22642;-74
2023/06/28 22:51:06;;;;;;;9.50;6.70;;;;;;;14.28;86.14;98712.89;221894;1304;22572;-73
2023/06/28 22:57:18;;;;;;;;;;;;;;;;;;;;;
2023/06/28 23:03:51;;;;;;;5.80;5.30;;;;;;;14.31;86.39;98712.19;221890;1304;22637;-73
2023/06/28 23:10:06;;;;;;;6.90;6.10;;;;;;;14.30;86.28;98709.25;221637;1304;22568;-73
2023/06/28 23:17:12;;;;;;;;;;;;;;;;;;;;;
2023/06/28 23:31:08;;;;;;;;;;;;;;;;;;;;;
2023/06/28 23:51:40;;;;;;;8.70;7.90;;;;;;;14.52;86.85;98715.79;221808;1304;22572;-73
2023/06/28 23:57:27;;;;;;;8.80;7.50;;;;;;;14.56;86.73;98712.43;221620;1304;22583;-72
